Time;durP1;ratioP1;P1;durP2;ratioP2;P2;SDS_P1;SDS_P2;PMS_P1;PMS_P2;Temp;Humidity;BMP_temperature;BMP_pressure;BME280_temperature;BME280_humidity;BME280_pressure;Samples;Min_cycle;Max_cycle;Signal;HPM_P1;HPM_P2
2022/08/13 00:02:04;;;;;;;2.15;1.20;;;20.20;66.00;;;;;;4371921;28;10000481;-72
2022/08/13 00:04:30;;;;;;;2.20;1.30;;;20.10;66.30;;;;;;5079059;28;20032;-72
2022/08/13 00:09:27;;;;;;;4.30;1.20;;;20.10;66.90;;;;;;5079508;28;20024;-72
2022/08/13 00:14:40;;;;;;;2.22;1.40;;;20.00;66.90;;;;;;5081334;28;20031;-72
2022/08/13 00:17:14;;;;;;;3.33;1.20;;;20.00;67.00;;;;;;5083168;28;20027;-72
2022/08/13 00:19:43;;;;;;;3.75;1.30;;;20.00;66.90;;;;;;5081952;28;20036;-72
2022/08/13 00:22:10;;;;;;;5.53;1.48;;;20.00;67.10;;;;;;5075461;28;21917;-72
2022/08/13 00:24:38;;;;;;;4.25;1.40;;;19.90;67.10;;;;;;5079328;28;20391;-72
2022/08/13 00:27:04;;;;;;;1.92;1.10;;;19.90;67.20;;;;;;5077867;28;20016;-73
2022/08/13 00:29:30;;;;;;;1.60;1.33;;;19.90;67.30;;;;;;5082601;28;20032;-73
2022/08/13 00:31:55;;;;;;;3.10;1.20;;;19.90;67.40;;;;;;5078194;28;20127;-72
2022/08/13 00:34:21;;;;;;;3.75;1.30;;;19.90;67.50;;;;;;5083188;28;20028;-72
2022/08/13 00:36:47;;;;;;;2.33;1.20;;;19.90;67.50;;;;;;5076113;28;20035;-72
2022/08/13 00:39:13;;;;;;;3.58;1.30;;;19.90;67.70;;;;;;5080083;28;20048;-72
2022/08/13 00:41:44;;;;;;;2.10;1.48;;;19.90;67.90;;;;;;5081007;28;20031;-72
2022/08/13 00:44:13;;;;;;;4.05;1.20;;;19.80;68.00;;;;;;5079922;28;20024;-72
2022/08/13 00:46:40;;;;;;;5.57;1.38;;;19.80;68.10;;;;;;5084303;28;20016;-72
2022/08/13 00:49:07;;;;;;;3.80;1.50;;;19.80;68.50;;;;;;5079050;28;20669;-72
2022/08/13 00:51:35;;;;;;;5.15;1.42;;;19.70;68.50;;;;;;5080749;28;20040;-72
2022/08/13 00:54:04;;;;;;;3.15;1.45;;;19.70;68.60;;;;;;5080514;28;20024;-72
2022/08/13 00:56:35;;;;;;;3.55;1.40;;;19.70;68.80;;;;;;5079493;28;20027;-72
2022/08/13 00:59:07;;;;;;;3.15;1.45;;;19.70;69.00;;;;;;5078633;28;20023;-72
2022/08/13 01:01:35;;;;;;;3.33;1.50;;;19.60;69.30;;;;;;5077541;28;20040;-72
2022/08/13 01:04:04;;;;;;;6.13;1.48;;;19.60;69.40;;;;;;5084018;28;20032;-72
2022/08/13 01:06:32;;;;;;;3.15;1.40;;;19.50;69.50;;;;;;5078146;28;20032;-72
2022/08/13 01:08:57;;;;;;;2.42;1.38;;;19.50;69.80;;;;;;5080411;28;20564;-72
2022/08/13 01:11:24;;;;;;;4.50;1.67;;;19.50;69.90;;;;;;5077555;28;20049;-72
2022/08/13 01:13:51;;;;;;;6.85;1.75;;;19.50;70.10;;;;;;5076601;28;20122;-72
2022/08/13 01:16:18;;;;;;;4.35;1.50;;;19.40;70.20;;;;;;5074911;28;20636;-72
2022/08/13 01:18:46;;;;;;;7.72;1.90;;;19.40;70.50;;;;;;5076194;28;20395;-72
2022/08/13 01:21:16;;;;;;;6.45;1.90;;;19.40;70.70;;;;;;5077797;28;20036;-72
2022/08/13 01:23:48;;;;;;;2.95;1.63;;;19.30;70.90;;;;;;5076372;28;20027;-72
2022/08/13 01:26:16;;;;;;;6.03;1.88;;;19.30;71.20;;;;;;5078770;28;20028;-72
2022/08/13 01:28:43;;;;;;;2.58;1.63;;;19.20;71.20;;;;;;5078736;28;20024;-72
2022/08/13 01:31:11;;;;;;;7.13;2.17;;;19.20;71.40;;;;;;5071971;28;20732;-72
2022/08/13 01:33:38;;;;;;;5.38;2.20;;;19.10;71.60;;;;;;5073403;28;20046;-72
2022/08/13 01:36:06;;;;;;;3.65;1.90;;;19.10;71.90;;;;;;5082164;28;20273;-73
2022/08/13 01:38:33;;;;;;;4.18;1.83;;;19.10;72.10;;;;;;5080555;28;20150;-73
2022/08/13 01:40:59;;;;;;;5.53;1.63;;;19.10;72.20;;;;;;5069668;28;20028;-72
2022/08/13 01:43:29;;;;;;;2.55;1.77;;;19.10;72.30;;;;;;5075420;28;20339;-73
2022/08/13 01:45:59;;;;;;;3.65;1.70;;;19.00;72.40;;;;;;5068721;28;20454;-72
2022/08/13 01:51:21;;;;;;;3.65;1.50;;;19.00;72.50;;;;;;5074781;28;20039;-72
2022/08/13 01:53:58;;;;;;;5.35;1.75;;;19.00;72.80;;;;;;5080196;28;20032;-72
2022/08/13 01:56:24;;;;;;;5.00;1.80;;;19.00;72.70;;;;;;5080065;28;20327;-72
2022/08/13 01:58:55;;;;;;;3.55;1.80;;;19.00;73.00;;;;;;5079152;28;20039;-72
2022/08/13 02:01:27;;;;;;;3.90;1.60;;;19.00;73.30;;;;;;5072444;28;20089;-72
2022/08/13 02:03:55;;;;;;;3.63;1.75;;;18.90;73.10;;;;;;5082684;28;20027;-72
2022/08/13 02:06:28;;;;;;;1.83;1.65;;;18.90;73.50;;;;;;5077913;28;20412;-72
2022/08/13 02:09:04;;;;;;;2.90;1.63;;;18.80;74.10;;;;;;5076650;28;20023;-72
2022/08/13 02:11:34;;;;;;;2.35;1.77;;;18.70;74.40;;;;;;5075279;28;20486;-72
2022/08/13 02:14:02;;;;;;;2.17;1.42;;;18.60;74.90;;;;;;5077884;28;20028;-72
2022/08/13 02:16:34;;;;;;;3.75;1.50;;;18.50;75.50;;;;;;5070824;28;20017;-72
2022/08/13 02:19:04;;;;;;;1.92;1.70;;;18.30;76.10;;;;;;5077504;28;20032;-72
2022/08/13 02:21:38;;;;;;;2.92;1.50;;;18.10;76.80;;;;;;5081307;28;20164;-72
2022/08/13 02:24:09;;;;;;;3.08;1.50;;;17.90;77.50;;;;;;5083313;28;20436;-72
2022/08/13 02:26:37;;;;;;;1.73;1.60;;;17.80;78.10;;;;;;5079685;28;20069;-72
2022/08/13 02:29:05;;;;;;;2.75;1.40;;;17.80;89.00;;;;;;5077213;28;20611;-72
2022/08/13 02:31:31;;;;;;;2.95;1.60;;;17.70;90.30;;;;;;5083592;28;20039;-72
2022/08/13 02:33:57;;;;;;;2.15;1.67;;;17.70;92.30;;;;;;5083778;28;20133;-72
2022/08/13 02:36:25;;;;;;;3.03;1.90;;;17.70;92.30;;;;;;5075722;28;20042;-72
2022/08/13 02:39:04;;;;;;;3.58;1.80;;;17.50;95.30;;;;;;5083460;28;20046;-72
2022/08/13 02:41:38;;;;;;;2.65;1.70;;;17.50;95.80;;;;;;5081212;28;20020;-72
2022/08/13 02:44:06;;;;;;;1.60;1.50;;;17.40;99.80;;;;;;5074615;28;20488;-72
2022/08/13 02:46:31;;;;;;;1.90;1.70;;;17.20;82.90;;;;;;5077264;28;20036;-72
2022/08/13 02:48:58;;;;;;;1.77;1.67;;;17.20;83.30;;;;;;5080718;28;20012;-72
2022/08/13 02:51:25;;;;;;;1.60;1.50;;;17.10;83.70;;;;;;5082037;28;20044;-72
2022/08/13 02:53:52;;;;;;;1.77;1.38;;;17.10;84.30;;;;;;5083786;28;20051;-72
2022/08/13 02:56:18;;;;;;;1.98;1.65;;;17.10;85.00;;;;;;5084607;28;20514;-72
2022/08/13 02:58:43;;;;;;;1.90;1.75;;;17.00;85.20;;;;;;5084918;28;20036;-72
2022/08/13 03:01:11;;;;;;;1.58;1.40;;;17.00;85.80;;;;;;5083790;28;20042;-72
2022/08/13 03:03:37;;;;;;;2.75;1.67;;;17.00;86.30;;;;;;5088892;28;20035;-73
2022/08/13 03:06:03;;;;;;;2.30;1.58;;;17.00;87.00;;;;;;5079738;28;20016;-73
2022/08/13 03:08:29;;;;;;;2.35;1.75;;;17.00;87.60;;;;;;5084901;28;20032;-72
2022/08/13 03:10:56;;;;;;;3.15;1.73;;;16.90;88.20;;;;;;5084342;28;20020;-72
2022/08/13 03:13:25;;;;;;;2.15;1.65;;;17.00;89.40;;;;;;5085189;28;20028;-72
2022/08/13 03:15:55;;;;;;;3.83;1.90;;;17.00;90.20;;;;;;5083820;28;20036;-72
2022/08/13 03:18:24;;;;;;;4.90;1.75;;;17.10;90.40;;;;;;5081117;28;20514;-72
2022/08/13 03:20:50;;;;;;;2.13;1.85;;;17.10;91.00;;;;;;5079737;28;20502;-72
2022/08/13 03:23:17;;;;;;;6.57;2.00;;;17.20;91.10;;;;;;5086125;28;20028;-72
2022/08/13 03:25:44;;;;;;;3.80;1.88;;;17.20;90.90;;;;;;5077164;28;20747;-72
2022/08/13 03:28:10;;;;;;;3.90;1.77;;;17.30;91.00;;;;;;5084607;28;20032;-72
2022/08/13 03:30:36;;;;;;;3.47;1.98;;;17.30;91.80;;;;;;5078276;28;20619;-72
2022/08/13 03:33:07;;;;;;;2.13;1.92;;;17.20;92.30;;;;;;5081559;28;20031;-72
2022/08/13 03:35:34;;;;;;;2.30;2.00;;;17.10;92.60;;;;;;5082482;28;20032;-72
2022/08/13 03:38:00;;;;;;;2.95;2.17;;;17.10;93.10;;;;;;5079367;28;20035;-72
2022/08/13 03:41:11;;;;;;;4.43;2.08;;;17.00;93.00;;;;;;5082676;28;20040;-72
2022/08/13 03:43:12;;;;;;;1.98;1.80;;;17.10;92.90;;;;;;5066144;28;20056;-72
2022/08/13 03:45:38;;;;;;;3.40;2.25;;;17.20;93.10;;;;;;5074621;28;20030;-72
2022/08/13 03:48:04;;;;;;;4.15;2.03;;;17.30;93.00;;;;;;5074599;28;20157;-72
2022/08/13 03:50:30;;;;;;;4.35;2.00;;;17.40;92.90;;;;;;5081503;28;20243;-72
2022/08/13 03:53:03;;;;;;;3.90;2.20;;;17.40;93.10;;;;;;5081498;28;20024;-72
2022/08/13 03:55:30;;;;;;;4.07;2.05;;;17.50;92.60;;;;;;5077044;28;20028;-72
2022/08/13 03:57:57;;;;;;;2.58;2.08;;;17.60;92.60;;;;;;5073800;28;20510;-72
2022/08/13 04:00:28;;;;;;;8.80;2.28;;;17.60;93.10;;;;;;5077235;28;20043;-72
2022/08/13 04:02:56;;;;;;;3.95;1.90;;;17.50;94.10;;;;;;5082376;28;20568;-72
2022/08/13 04:05:22;;;;;;;3.08;1.90;;;17.40;94.70;;;;;;5077506;28;20020;-72
2022/08/13 04:07:52;;;;;;;4.03;1.80;;;17.20;94.90;;;;;;5079519;28;20442;-72
2022/08/13 04:10:18;;;;;;;2.00;1.80;;;17.10;95.20;;;;;;5076997;28;20031;-72
2022/08/13 04:12:44;;;;;;;2.28;1.90;;;17.00;95.90;;;;;;5081484;28;20028;-72
2022/08/13 04:15:10;;;;;;;2.10;1.90;;;16.80;97.70;;;;;;5082331;28;20080;-72
2022/08/13 04:17:36;;;;;;;3.25;2.03;;;16.80;98.70;;;;;;5078246;28;20035;-72
2022/08/13 04:20:09;;;;;;;5.15;2.25;;;16.70;99.10;;;;;;5079701;28;20682;-72
2022/08/13 04:22:39;;;;;;;2.25;1.85;;;16.60;99.90;;;;;;5085102;28;20036;-71
2022/08/13 04:25:08;;;;;;;3.72;2.20;;;16.60;99.90;;;;;;5081335;28;21043;-72
2022/08/13 04:27:34;;;;;;;2.78;1.83;;;16.50;98.70;;;;;;5079966;28;20020;-72
2022/08/13 04:30:02;;;;;;;2.53;2.00;;;16.40;98.30;;;;;;5078550;28;20050;-72
2022/08/13 04:32:28;;;;;;;3.78;1.88;;;16.30;98.10;;;;;;5074935;28;20120;-72
2022/08/13 04:34:54;;;;;;;2.40;1.92;;;16.30;98.70;;;;;;5083576;28;20036;-72
2022/08/13 04:37:22;;;;;;;2.75;2.20;;;16.30;99.90;;;;;;5083973;28;20453;-72
2022/08/13 04:39:52;;;;;;;2.15;1.95;;;16.40;99.90;;;;;;5081070;28;20441;-72
2022/08/13 04:42:17;;;;;;;2.60;2.10;;;16.40;99.90;;;;;;5085981;28;20140;-72
2022/08/13 04:44:43;;;;;;;2.13;2.00;;;16.50;99.90;;;;;;5083191;28;20103;-72
2022/08/13 04:47:09;;;;;;;2.47;2.28;;;16.50;99.90;;;;;;5080616;28;20024;-72
2022/08/13 04:49:34;;;;;;;4.63;2.65;;;16.50;99.90;;;;;;5078088;28;20093;-72
2022/08/13 04:52:00;;;;;;;5.00;2.30;;;16.30;99.90;;;;;;5072877;28;20066;-72
2022/08/13 04:54:28;;;;;;;4.03;2.30;;;16.30;99.90;;;;;;5072102;28;20031;-71
2022/08/13 04:56:54;;;;;;;3.33;2.50;;;16.30;99.90;;;;;;5082005;28;20032;-72
2022/08/13 04:59:22;;;;;;;2.70;2.22;;;16.30;99.90;;;;;;5083307;28;20028;-72
2022/08/13 05:01:48;;;;;;;2.38;2.00;;;16.50;99.90;;;;;;5073901;28;20078;-72
2022/08/13 05:04:13;;;;;;;2.42;2.13;;;16.60;99.90;;;;;;5078434;28;20036;-71
2022/08/13 05:06:39;;;;;;;4.00;2.00;;;16.70;99.90;;;;;;5076347;28;20028;-71
2022/08/13 05:09:05;;;;;;;6.35;2.50;;;16.80;99.90;;;;;;5078041;28;20024;-72
2022/08/13 05:11:30;;;;;;;2.33;1.98;;;16.80;99.90;;;;;;5079602;28;20044;-71
2022/08/13 05:13:56;;;;;;;2.42;2.22;;;16.70;99.90;;;;;;5080208;28;20148;-71
2022/08/13 05:16:21;;;;;;;3.42;1.95;;;16.70;99.90;;;;;;5077115;28;20042;-72
2022/08/13 05:18:56;;;;;;;7.13;2.50;;;16.70;99.90;;;;;;5074328;28;20024;-72
2022/08/13 05:21:23;;;;;;;4.78;2.05;;;16.90;99.90;;;;;;5078259;28;20028;-73
2022/08/13 05:23:53;;;;;;;8.32;2.22;;;17.00;99.90;;;;;;5078639;28;20047;-72
2022/08/13 05:26:23;;;;;;;5.28;2.20;;;17.10;99.90;;;;;;5079474;28;20030;-72
2022/08/13 05:28:52;;;;;;;3.88;2.50;;;17.20;99.90;;;;;;5079684;28;20056;-72
2022/08/13 05:31:18;;;;;;;5.78;2.30;;;17.30;99.90;;;;;;5078021;28;20024;-72
2022/08/13 05:33:44;;;;;;;4.28;1.95;;;17.40;99.90;;;;;;5072364;28;20240;-73
2022/08/13 05:36:09;;;;;;;3.45;2.10;;;17.40;99.90;;;;;;5080494;28;20043;-73
2022/08/13 05:38:36;;;;;;;2.30;2.10;;;17.50;99.90;;;;;;5084659;28;20547;-72
2022/08/13 05:41:07;;;;;;;4.65;2.30;;;17.50;99.90;;;;;;5077966;28;20302;-72
2022/08/13 05:43:36;;;;;;;5.55;2.20;;;17.50;99.90;;;;;;5076289;28;20058;-72
2022/08/13 05:46:08;;;;;;;5.03;2.42;;;17.50;99.90;;;;;;5072734;28;20106;-72
2022/08/13 05:48:40;;;;;;;4.00;2.40;;;17.50;99.90;;;;;;5072398;28;20051;-72
2022/08/13 05:51:08;;;;;;;3.15;2.13;;;17.60;99.90;;;;;;5079569;28;20379;-72
2022/08/13 05:53:38;;;;;;;2.10;1.90;;;17.50;99.90;;;;;;5084039;28;20073;-72
2022/08/13 05:56:05;;;;;;;2.50;2.10;;;17.40;99.90;;;;;;5083575;28;20028;-72
2022/08/13 05:58:31;;;;;;;4.03;2.58;;;17.30;99.90;;;;;;5074248;28;20024;-72
2022/08/13 06:03:43;;;;;;;3.00;2.45;;;17.20;99.90;;;;;;5086751;28;20031;-72
2022/08/13 06:06:11;;;;;;;2.90;2.30;;;17.20;99.90;;;;;;5072132;28;20067;-72
2022/08/13 06:08:39;;;;;;;2.83;2.30;;;17.10;99.90;;;;;;5087471;28;20452;-72
2022/08/13 06:11:08;;;;;;;4.53;2.67;;;17.10;99.90;;;;;;5085149;28;20083;-72
2022/08/13 06:13:37;;;;;;;2.78;2.20;;;17.10;99.90;;;;;;5084788;28;20024;-72
2022/08/13 06:16:06;;;;;;;4.43;2.35;;;17.10;99.90;;;;;;5088078;28;20101;-72
2022/08/13 06:18:35;;;;;;;4.28;2.38;;;17.00;99.90;;;;;;5088918;28;20247;-72
2022/08/13 06:21:04;;;;;;;3.30;2.88;;;17.10;99.90;;;;;;5083308;28;20020;-72
2022/08/13 06:23:31;;;;;;;5.40;2.78;;;17.10;99.90;;;;;;5081435;28;20027;-73
2022/08/13 06:25:58;;;;;;;7.32;2.90;;;17.10;99.90;;;;;;5085798;28;20031;-72
2022/08/13 06:28:29;;;;;;;3.03;2.53;;;17.20;99.90;;;;;;5085761;28;20027;-72
2022/08/13 06:30:58;;;;;;;3.17;2.60;;;17.20;99.90;;;;;;5085443;28;20081;-72
2022/08/13 06:33:25;;;;;;;4.47;2.28;;;17.20;99.90;;;;;;5082666;28;20036;-73
2022/08/13 06:35:56;;;;;;;3.95;2.47;;;17.30;99.90;;;;;;5087522;28;20513;-72
2022/08/13 06:38:26;;;;;;;6.07;2.90;;;17.30;99.90;;;;;;5086296;28;20048;-73
2022/08/13 06:40:54;;;;;;;3.45;2.30;;;17.30;99.90;;;;;;5075283;28;20379;-73
2022/08/13 06:43:21;;;;;;;3.88;2.65;;;17.40;99.90;;;;;;5086090;28;20020;-72
2022/08/13 06:45:47;;;;;;;6.72;3.80;;;17.40;99.90;;;;;;5085853;28;20104;-72
2022/08/13 06:48:14;;;;;;;4.22;3.50;;;17.50;99.90;;;;;;5086200;28;20081;-72
2022/08/13 06:50:41;;;;;;;3.15;2.80;;;17.70;99.90;;;;;;5073641;28;20029;-73
2022/08/13 06:53:08;;;;;;;4.03;2.80;;;17.80;99.90;;;;;;5084315;28;20027;-72
2022/08/13 06:55:36;;;;;;;4.20;2.60;;;18.00;99.90;;;;;;5088261;28;20325;-72
2022/08/13 06:58:09;;;;;;;4.28;3.00;;;18.20;99.90;;;;;;5085320;28;20059;-72
2022/08/13 07:00:37;;;;;;;2.67;2.47;;;18.50;99.90;;;;;;5086888;28;20031;-72
2022/08/13 07:03:03;;;;;;;5.90;2.72;;;18.80;99.90;;;;;;5087195;28;20047;-72
2022/08/13 07:05:38;;;;;;;5.72;2.33;;;19.20;99.90;;;;;;5083379;28;20074;-72
2022/08/13 07:08:07;;;;;;;2.63;2.17;;;19.50;99.90;;;;;;5082744;28;20099;-72
2022/08/13 07:10:34;;;;;;;3.92;2.00;;;19.80;97.40;;;;;;5067628;28;20352;-72
2022/08/13 07:13:02;;;;;;;4.53;2.25;;;20.10;96.30;;;;;;5084523;28;20447;-72
2022/08/13 07:15:29;;;;;;;2.25;1.90;;;20.40;95.50;;;;;;5077998;28;20545;-72
2022/08/13 07:17:56;;;;;;;3.00;2.30;;;20.70;94.80;;;;;;5087921;28;20047;-72
2022/08/13 07:20:23;;;;;;;3.50;2.20;;;21.00;93.60;;;;;;5073692;28;20263;-72
2022/08/13 07:22:49;;;;;;;4.65;2.03;;;21.20;93.10;;;;;;5076017;28;20574;-72
2022/08/13 07:25:17;;;;;;;2.63;2.20;;;21.50;92.30;;;;;;5083263;28;20291;-72
2022/08/13 07:27:44;;;;;;;2.42;2.05;;;22.00;91.50;;;;;;5082880;28;20031;-72
2022/08/13 07:30:14;;;;;;;2.75;2.00;;;22.10;91.60;;;;;;5086110;28;20491;-72
2022/08/13 07:32:41;;;;;;;3.25;2.00;;;22.40;90.70;;;;;;5079247;28;20028;-72
2022/08/13 07:35:08;;;;;;;4.35;2.20;;;22.70;89.70;;;;;;5084827;28;20089;-72
2022/08/13 07:37:39;;;;;;;4.45;1.80;;;22.90;88.90;;;;;;5078918;28;20024;-72
2022/08/13 07:40:08;;;;;;;4.18;1.90;;;23.10;87.30;;;;;;5076641;28;20449;-72
2022/08/13 07:42:38;;;;;;;2.72;1.80;;;23.40;85.50;;;;;;5075115;28;20035;-73
2022/08/13 07:45:05;;;;;;;3.65;2.00;;;23.80;84.50;;;;;;5089063;28;20049;-72
2022/08/13 07:47:32;;;;;;;4.57;1.77;;;23.90;82.30;;;;;;5074609;28;20023;-72
2022/08/13 07:50:01;;;;;;;2.50;1.83;;;24.10;81.40;;;;;;5074533;28;20126;-72
2022/08/13 07:52:29;;;;;;;5.15;1.60;;;24.40;80.00;;;;;;5081221;28;20036;-73
2022/08/13 07:54:58;;;;;;;2.60;1.90;;;24.60;79.80;;;;;;5082779;28;20036;-73
2022/08/13 07:57:27;;;;;;;1.90;1.40;;;24.80;79.00;;;;;;5074927;28;20031;-73
2022/08/13 07:59:54;;;;;;;4.20;1.70;;;25.00;79.30;;;;;;5083029;28;20517;-73
2022/08/13 08:02:19;;;;;;;3.08;1.75;;;25.10;78.90;;;;;;5080412;28;20032;-73
2022/08/13 08:04:45;;;;;;;2.20;1.80;;;25.20;77.80;;;;;;5082795;28;20433;-74
2022/08/13 08:07:14;;;;;;;2.85;1.60;;;25.30;76.50;;;;;;5077143;28;20046;-73
2022/08/13 08:09:39;;;;;;;3.55;1.80;;;25.40;75.40;;;;;;5079675;28;20031;-73
2022/08/13 08:14:50;;;;;;;3.05;1.70;;;25.80;71.40;;;;;;5087758;28;20403;-73
2022/08/13 08:17:17;;;;;;;2.88;1.67;;;25.90;69.60;;;;;;5087157;28;20342;-73
2022/08/13 08:19:47;;;;;;;2.90;1.65;;;26.10;69.00;;;;;;5086798;28;20103;-73
2022/08/13 08:22:14;;;;;;;6.72;1.90;;;26.30;68.70;;;;;;5083631;28;20127;-73
2022/08/13 08:24:39;;;;;;;2.45;1.70;;;26.40;68.30;;;;;;5080015;28;20103;-73
2022/08/13 08:27:09;;;;;;;2.85;1.60;;;26.60;69.20;;;;;;5071992;28;20144;-73
2022/08/13 08:29:36;;;;;;;1.60;1.50;;;26.70;67.00;;;;;;5083716;28;20034;-73
2022/08/13 08:32:10;;;;;;;3.17;1.73;;;26.70;67.30;;;;;;5084999;28;20032;-73
2022/08/13 08:34:40;;;;;;;2.85;1.83;;;26.80;66.80;;;;;;5085441;28;20036;-73
2022/08/13 08:37:06;;;;;;;2.70;1.80;;;26.90;65.40;;;;;;5084333;28;20020;-73
2022/08/13 08:42:38;;;;;;;4.75;1.70;;;27.00;63.50;;;;;;5067913;28;20553;-71
2022/08/13 08:45:12;;;;;;;5.60;1.70;;;27.00;63.50;;;;;;5084405;28;20076;-72
2022/08/13 08:47:37;;;;;;;2.73;1.73;;;27.00;64.00;;;;;;5066848;28;20501;-78
2022/08/13 08:50:05;;;;;;;2.50;1.45;;;27.00;63.50;;;;;;5075131;28;20048;-79
2022/08/13 08:55:16;;;;;;;6.93;1.63;;;27.10;63.60;;;;;;5091801;28;20080;-75
2022/08/13 08:57:44;;;;;;;7.40;1.75;;;27.10;64.50;;;;;;5083822;28;20491;-80
2022/08/13 09:00:20;;;;;;;5.45;1.80;;;;;;;;;;5083116;28;20042;-80
2022/08/13 09:02:50;;;;;;;5.63;2.20;;;27.10;63.10;;;;;;5085516;28;20547;-79
2022/08/13 09:05:21;;;;;;;4.25;1.80;;;27.10;63.90;;;;;;5071379;28;20616;-80
2022/08/13 09:07:47;;;;;;;5.60;1.88;;;27.00;63.30;;;;;;5074020;28;20031;-80
2022/08/13 09:10:17;;;;;;;19.00;2.17;;;27.00;63.50;;;;;;5079499;28;20473;-80
2022/08/13 09:12:45;;;;;;;2.03;1.90;;;27.10;64.60;;;;;;5077421;28;20066;-79
2022/08/13 09:15:12;;;;;;;4.15;1.50;;;27.10;63.00;;;;;;5076325;28;20135;-80
2022/08/13 09:17:39;;;;;;;2.20;1.48;;;27.00;61.20;;;;;;5083130;28;20059;-81
2022/08/13 09:20:12;;;;;;;5.07;1.80;;;27.10;60.90;;;;;;5081105;28;20051;-80
2022/08/13 09:22:40;;;;;;;1.45;1.38;;;27.10;62.30;;;;;;5079871;28;20093;-81
2022/08/13 09:25:06;;;;;;;1.98;1.70;;;27.00;62.10;;;;;;5082414;28;20454;-81
2022/08/13 09:27:34;;;;;;;4.22;1.42;;;27.10;61.90;;;;;;5086732;28;20028;-81
2022/08/13 09:30:00;;;;;;;7.40;1.77;;;27.20;61.80;;;;;;5082713;28;20115;-80
2022/08/13 09:32:28;;;;;;;2.45;1.80;;;27.20;61.00;;;;;;5085839;28;20028;-80
2022/08/13 09:34:54;;;;;;;3.38;1.83;;;27.00;61.10;;;;;;5087978;28;20195;-81
2022/08/13 09:37:22;;;;;;;2.75;1.90;;;27.00;61.00;;;;;;5090276;28;20032;-81
2022/08/13 09:40:00;;;;;;;2.10;1.90;;;26.90;60.80;;;;;;5079005;28;20416;-81
2022/08/13 09:42:36;;;;;;;8.23;2.10;;;26.80;60.70;;;;;;5086995;28;20115;-81
2022/08/13 09:45:03;;;;;;;2.72;1.88;;;26.80;61.20;;;;;;5090374;28;20016;-81
2022/08/13 09:47:29;;;;;;;2.42;1.90;;;26.90;61.00;;;;;;5073752;28;20036;-81
2022/08/13 09:49:56;;;;;;;2.10;1.90;;;27.10;59.90;;;;;;5088397;28;20194;-81
2022/08/13 09:52:22;;;;;;;4.35;1.80;;;27.40;60.10;;;;;;5081485;28;20032;-81
2022/08/13 09:54:49;;;;;;;4.80;2.13;;;27.50;59.00;;;;;;5079651;28;20332;-81
2022/08/13 09:57:14;;;;;;;4.72;1.80;;;27.60;59.30;;;;;;5089844;28;20024;-81
2022/08/13 09:59:41;;;;;;;6.55;1.85;;;27.70;58.50;;;;;;5089273;28;20391;-81
2022/08/13 10:02:12;;;;;;;2.97;1.77;;;27.70;58.40;;;;;;5084805;28;20484;-81
2022/08/13 10:04:38;;;;;;;3.10;1.80;;;27.80;58.90;;;;;;5081774;28;20062;-81
2022/08/13 10:07:07;;;;;;;2.15;1.88;;;27.80;58.20;;;;;;5085644;28;20037;-81
2022/08/13 10:09:34;;;;;;;2.40;1.90;;;27.50;58.30;;;;;;5086987;28;20103;-81
2022/08/13 10:12:05;;;;;;;2.83;1.67;;;27.30;58.80;;;;;;5078484;28;20126;-81
2022/08/13 10:14:31;;;;;;;2.72;1.67;;;27.30;58.90;;;;;;5088110;28;20364;-81
2022/08/13 10:16:57;;;;;;;6.15;1.70;;;27.40;59.10;;;;;;5079857;28;20528;-81
2022/08/13 10:19:23;;;;;;;7.40;1.77;;;27.70;59.10;;;;;;5087319;28;20023;-81
2022/08/13 10:21:49;;;;;;;5.68;1.92;;;27.90;58.00;;;;;;5082595;28;20032;-81
2022/08/13 10:24:15;;;;;;;3.00;1.80;;;28.10;57.60;;;;;;5086917;28;20316;-81
2022/08/13 10:26:41;;;;;;;3.70;2.08;;;28.20;57.60;;;;;;5088105;28;20183;-81
2022/08/13 10:29:10;;;;;;;3.58;2.03;;;28.20;56.90;;;;;;5084896;28;20035;-81
2022/08/13 10:31:37;;;;;;;2.03;1.83;;;28.00;56.80;;;;;;5082202;28;20402;-81
2022/08/13 10:34:05;;;;;;;1.90;1.65;;;27.80;57.40;;;;;;5087045;28;20024;-81
2022/08/13 10:36:32;;;;;;;2.92;1.90;;;27.80;57.90;;;;;;5082056;28;20047;-81
2022/08/13 10:38:58;;;;;;;4.95;2.00;;;27.90;57.90;;;;;;5083470;28;20043;-81
2022/08/13 10:41:24;;;;;;;3.88;1.80;;;27.90;57.60;;;;;;5086026;28;20028;-81
2022/08/13 10:43:56;;;;;;;2.78;1.88;;;27.80;56.80;;;;;;5086928;28;20032;-81
2022/08/13 10:46:22;;;;;;;3.33;1.90;;;27.80;56.50;;;;;;5088329;28;20117;-80
2022/08/13 10:48:51;;;;;;;2.08;1.92;;;27.90;56.60;;;;;;5085447;28;20491;-80
2022/08/13 10:51:17;;;;;;;2.30;1.80;;;28.00;55.70;;;;;;5086285;28;20449;-80
2022/08/13 10:53:55;;;;;;;3.40;1.85;;;28.00;56.10;;;;;;5086484;28;20020;-81
2022/08/13 10:56:21;;;;;;;2.10;1.58;;;28.20;56.10;;;;;;5086785;28;20529;-81
2022/08/13 10:58:48;;;;;;;2.15;1.73;;;28.30;55.70;;;;;;5084228;28;20024;-81
2022/08/13 11:01:15;;;;;;;1.50;1.38;;;28.50;53.30;;;;;;5079528;28;20496;-81
2022/08/13 11:03:44;;;;;;;4.40;1.70;;;28.80;53.90;;;;;;5085136;28;20391;-81
2022/08/13 11:06:11;;;;;;;2.75;1.60;;;29.00;52.20;;;;;;5088392;28;20024;-81
2022/08/13 11:08:39;;;;;;;1.70;1.60;;;29.30;51.60;;;;;;5089088;28;20020;-81
2022/08/13 11:11:07;;;;;;;1.90;1.70;;;29.40;51.10;;;;;;5085370;28;20125;-81
2022/08/13 11:13:33;;;;;;;2.03;1.50;;;29.50;51.40;;;;;;5080860;28;20017;-81
2022/08/13 11:16:06;;;;;;;3.38;1.60;;;29.70;52.00;;;;;;5086938;28;20032;-81
2022/08/13 11:18:32;;;;;;;1.75;1.50;;;29.80;51.20;;;;;;5082683;28;20028;-81
2022/08/13 11:21:06;;;;;;;1.95;1.60;;;29.90;50.20;;;;;;5077289;28;20542;-81
2022/08/13 11:23:33;;;;;;;2.60;1.35;;;30.10;51.40;;;;;;5078613;28;20043;-81
2022/08/13 11:25:59;;;;;;;2.65;1.60;;;30.40;50.60;;;;;;5078567;28;20028;-81
2022/08/13 11:28:24;;;;;;;3.03;1.58;;;30.70;50.50;;;;;;5072368;28;20186;-80
2022/08/13 11:30:52;;;;;;;4.57;1.77;;;30.80;49.80;;;;;;5079718;28;20032;-81
2022/08/13 11:33:19;;;;;;;2.97;1.70;;;30.50;50.60;;;;;;5078344;28;20300;-81
2022/08/13 11:35:45;;;;;;;1.50;1.40;;;30.20;50.20;;;;;;5082768;28;20020;-81
2022/08/13 11:38:13;;;;;;;3.95;1.77;;;30.00;50.90;;;;;;5079397;28;20591;-79
2022/08/13 11:40:44;;;;;;;3.97;2.00;;;29.80;51.60;;;;;;5082626;28;22250;-81
2022/08/13 11:43:09;;;;;;;2.17;1.80;;;29.10;52.10;;;;;;5080260;28;20157;-81
2022/08/13 11:45:35;;;;;;;3.10;1.90;;;29.00;53.50;;;;;;5079298;28;20196;-81
2022/08/13 11:48:00;;;;;;;4.03;1.85;;;29.20;53.90;;;;;;5083807;28;20025;-80
2022/08/13 11:50:26;;;;;;;2.35;1.88;;;29.10;53.10;;;;;;5080600;28;20024;-81
2022/08/13 11:52:52;;;;;;;2.03;1.73;;;29.20;52.90;;;;;;5079018;28;20097;-79
2022/08/13 11:55:17;;;;;;;3.83;1.70;;;29.40;51.50;;;;;;5083876;28;20078;-81
2022/08/13 11:57:43;;;;;;;4.75;1.80;;;29.40;50.80;;;;;;4731819;28;10000040;-80
2022/08/13 12:00:09;;;;;;;3.97;1.70;;;29.50;50.60;;;;;;5076582;28;20073;-80
2022/08/13 12:02:35;;;;;;;1.63;1.42;;;29.60;49.90;;;;;;5075081;28;20071;-80
2022/08/13 12:05:00;;;;;;;1.88;1.77;;;29.80;50.30;;;;;;5079005;28;20122;-80
2022/08/13 12:07:26;;;;;;;2.15;1.67;;;29.90;49.20;;;;;;5082390;28;20024;-80
2022/08/13 12:09:56;;;;;;;1.67;1.40;;;30.00;49.60;;;;;;5084355;28;20030;-80
2022/08/13 12:12:21;;;;;;;1.77;1.50;;;30.30;49.80;;;;;;5075321;28;20028;-80
2022/08/13 12:14:47;;;;;;;2.58;1.50;;;30.60;49.10;;;;;;5084571;28;20039;-80
2022/08/13 12:17:13;;;;;;;3.22;1.80;;;30.70;48.70;;;;;;5084525;28;20040;-80
2022/08/13 12:19:38;;;;;;;5.40;1.83;;;30.80;48.70;;;;;;5082749;28;20028;-80
2022/08/13 12:22:05;;;;;;;3.58;1.75;;;30.70;48.80;;;;;;5078259;28;20035;-80
2022/08/13 12:24:30;;;;;;;4.55;1.70;;;30.60;49.20;;;;;;5077925;28;20034;-79
2022/08/13 12:26:56;;;;;;;3.25;1.85;;;30.30;49.70;;;;;;5083821;28;20020;-80
2022/08/13 12:29:21;;;;;;;5.22;1.80;;;30.10;50.00;;;;;;5081681;28;20107;-80
2022/08/13 12:31:47;;;;;;;5.93;2.05;;;30.00;50.30;;;;;;5078900;28;20036;-79
2022/08/13 12:34:13;;;;;;;2.60;1.70;;;30.00;49.70;;;;;;5081888;28;20042;-81
2022/08/13 12:36:38;;;;;;;3.10;1.75;;;29.80;49.80;;;;;;5080034;28;20063;-81
2022/08/13 12:39:04;;;;;;;4.30;2.00;;;29.80;49.90;;;;;;5069033;28;20060;-80
2022/08/13 12:41:31;;;;;;;2.88;1.60;;;29.90;50.20;;;;;;5078129;28;20040;-81
2022/08/13 12:43:56;;;;;;;4.35;1.67;;;30.20;49.00;;;;;;5081631;28;20208;-80
2022/08/13 12:46:22;;;;;;;4.70;1.73;;;30.50;48.60;;;;;;5069852;28;20418;-80
2022/08/13 12:48:47;;;;;;;4.10;1.60;;;30.80;47.70;;;;;;5082825;28;20038;-81
2022/08/13 12:51:13;;;;;;;2.50;1.60;;;31.00;47.60;;;;;;5075373;28;20435;-81
2022/08/13 12:53:39;;;;;;;2.88;1.73;;;31.20;47.40;;;;;;5078545;28;20039;-81
2022/08/13 12:56:05;;;;;;;6.38;1.90;;;31.40;45.90;;;;;;5082208;28;20032;-80
2022/08/13 12:58:31;;;;;;;1.90;1.58;;;;;;;;;;5078008;28;20066;-80
2022/08/13 13:00:58;;;;;;;1.63;1.52;;;31.40;45.70;;;;;;5075856;28;20028;-80
2022/08/13 13:03:26;;;;;;;1.83;1.73;;;31.20;46.80;;;;;;5082477;28;20078;-80
2022/08/13 13:05:53;;;;;;;3.45;1.73;;;31.30;46.30;;;;;;5082313;28;20622;-78
2022/08/13 13:08:27;;;;;;;1.98;1.58;;;31.40;46.90;;;;;;5084037;28;20028;-80
2022/08/13 13:10:55;;;;;;;2.90;1.30;;;31.20;47.10;;;;;;5081393;28;20036;-80